createdAt,value
2022-07-29T00:00:24.595Z,20.08
2022-07-29T00:01:24.582Z,20.15
2022-07-29T00:02:24.612Z,20.19
2022-07-29T00:03:24.600Z,20.33
2022-07-29T00:04:24.627Z,20.32
2022-07-29T00:05:24.534Z,20.36
2022-07-29T00:06:24.518Z,20.44
2022-07-29T00:07:24.507Z,20.55
2022-07-29T00:08:24.509Z,20.52
2022-07-29T00:09:24.491Z,20.59
2022-07-29T00:10:24.469Z,20.67
2022-07-29T00:11:24.462Z,20.63
2022-07-29T00:12:26.265Z,20.56
2022-07-29T00:13:31.762Z,20.64
2022-07-29T00:14:24.426Z,20.64
2022-07-29T00:15:24.414Z,20.66
2022-07-29T00:16:24.458Z,20.70
2022-07-29T00:17:24.396Z,20.73
2022-07-29T00:18:24.373Z,20.73
2022-07-29T00:19:24.362Z,20.78
2022-07-29T00:20:24.351Z,20.74
2022-07-29T00:21:24.340Z,20.75
2022-07-29T00:22:24.325Z,20.68
2022-07-29T00:23:24.322Z,20.71
2022-07-29T00:24:24.301Z,20.83
2022-07-29T00:25:24.293Z,20.77
2022-07-29T00:26:24.283Z,20.78
2022-07-29T00:27:24.269Z,20.68
2022-07-29T00:28:24.255Z,20.77
2022-07-29T00:29:34.068Z,20.78
2022-07-29T00:30:24.230Z,20.80
2022-07-29T00:31:24.255Z,20.80
2022-07-29T00:32:24.208Z,20.83
2022-07-29T00:33:24.195Z,20.83
2022-07-29T00:34:24.182Z,20.78
2022-07-29T00:35:24.171Z,20.75
2022-07-29T00:36:24.158Z,20.71
2022-07-29T00:37:24.171Z,20.68
2022-07-29T00:38:24.142Z,20.78
2022-07-29T00:39:24.128Z,20.68
2022-07-29T00:40:24.111Z,20.75
2022-07-29T00:41:24.101Z,20.68
2022-07-29T00:42:24.097Z,20.82
2022-07-29T00:43:24.080Z,20.66
2022-07-29T00:44:24.068Z,20.68
2022-07-29T00:45:24.052Z,20.73
2022-07-29T00:46:24.118Z,20.77
2022-07-29T00:47:24.043Z,20.71
2022-07-29T00:48:24.025Z,20.68
2022-07-29T00:49:24.082Z,20.67
2022-07-29T00:50:23.992Z,20.64
2022-07-29T00:51:23.989Z,20.58
2022-07-29T00:52:23.970Z,20.53
2022-07-29T00:53:23.959Z,20.53
2022-07-29T00:54:23.946Z,20.52
2022-07-29T00:55:23.936Z,20.48
2022-07-29T00:56:23.924Z,20.33
2022-07-29T00:57:23.914Z,20.32
2022-07-29T00:58:23.899Z,20.27
2022-07-29T00:59:23.889Z,20.15
2022-07-29T01:00:23.888Z,20.21
2022-07-29T01:01:23.945Z,20.07
2022-07-29T01:02:23.867Z,20.07
2022-07-29T01:03:23.843Z,20.00
2022-07-29T01:04:23.828Z,19.94
2022-07-29T01:05:23.819Z,19.97
2022-07-29T01:06:23.804Z,19.94
2022-07-29T01:07:23.795Z,19.85
2022-07-29T01:08:23.781Z,19.87
2022-07-29T01:09:37.263Z,19.84
2022-07-29T01:10:23.760Z,19.71
2022-07-29T01:11:23.751Z,19.64
2022-07-29T01:12:23.743Z,19.63
2022-07-29T01:13:23.724Z,19.67
2022-07-29T01:14:23.719Z,19.70
2022-07-29T01:15:23.703Z,19.59
2022-07-29T01:16:23.768Z,19.60
2022-07-29T01:17:23.674Z,19.55
2022-07-29T01:18:23.659Z,19.56
2022-07-29T01:19:23.650Z,19.57
2022-07-29T01:20:23.636Z,19.52
2022-07-29T01:21:23.630Z,19.38
2022-07-29T01:22:23.610Z,19.44
2022-07-29T01:23:23.601Z,19.29
2022-07-29T01:24:23.588Z,19.37
2022-07-29T01:25:23.582Z,19.26
2022-07-29T01:26:23.567Z,19.23
2022-07-29T01:27:23.551Z,19.17
2022-07-29T01:28:23.539Z,19.07
2022-07-29T01:29:23.529Z,19.00
2022-07-29T01:30:23.518Z,18.96
2022-07-29T01:31:25.379Z,18.92
2022-07-29T01:32:28.639Z,18.81
2022-07-29T01:33:23.477Z,18.68
2022-07-29T01:34:23.465Z,18.64
2022-07-29T01:35:23.455Z,18.71
2022-07-29T01:36:23.444Z,18.78
2022-07-29T01:37:23.430Z,18.64
2022-07-29T01:38:23.415Z,18.61
2022-07-29T01:39:23.405Z,18.49
2022-07-29T01:40:23.391Z,18.48
2022-07-29T01:41:23.381Z,18.52
2022-07-29T01:42:23.367Z,18.41
2022-07-29T01:43:23.358Z,18.34
2022-07-29T01:44:23.344Z,18.30
2022-07-29T01:45:23.333Z,18.30
2022-07-29T01:46:23.375Z,18.19
2022-07-29T01:47:23.318Z,18.11
2022-07-29T01:48:23.291Z,18.08
2022-07-29T01:49:23.354Z,17.90
2022-07-29T01:50:23.266Z,17.94
2022-07-29T01:51:23.257Z,17.88
2022-07-29T01:52:23.243Z,17.86
2022-07-29T01:53:23.237Z,17.79
2022-07-29T01:54:23.214Z,17.75
2022-07-29T01:55:23.204Z,17.68
2022-07-29T01:56:23.191Z,17.53
2022-07-29T01:57:23.179Z,17.54
2022-07-29T01:58:23.163Z,17.50
2022-07-29T01:59:23.155Z,17.47
2022-07-29T02:00:23.143Z,17.31
2022-07-29T02:01:23.169Z,17.30
2022-07-29T02:02:23.110Z,17.34
2022-07-29T02:03:23.101Z,17.22
2022-07-29T02:04:29.002Z,17.19
2022-07-29T02:05:23.171Z,17.16
2022-07-29T02:06:23.060Z,17.13
2022-07-29T02:07:23.053Z,17.09
2022-07-29T02:08:23.037Z,17.05
2022-07-29T02:09:23.021Z,17.10
2022-07-29T02:10:26.096Z,17.09
2022-07-29T02:11:23.007Z,16.94
2022-07-29T02:12:22.982Z,16.98
2022-07-29T02:13:22.972Z,16.99
2022-07-29T02:14:22.956Z,17.05
2022-07-29T02:15:22.947Z,16.92
2022-07-29T02:16:23.010Z,16.91
2022-07-29T02:17:22.915Z,16.94
2022-07-29T02:18:22.904Z,16.80
2022-07-29T02:19:22.893Z,16.84
2022-07-29T02:20:22.878Z,16.76
2022-07-29T02:21:22.867Z,16.79
2022-07-29T02:22:22.852Z,16.73
2022-07-29T02:23:22.838Z,16.69
2022-07-29T02:24:22.821Z,16.69
2022-07-29T02:25:22.812Z,16.62
2022-07-29T02:26:22.795Z,16.68
2022-07-29T02:27:22.789Z,16.62
2022-07-29T02:28:22.777Z,16.64
2022-07-29T02:29:22.756Z,16.65
2022-07-29T02:30:22.749Z,16.65
2022-07-29T02:31:22.807Z,16.65
2022-07-29T02:32:22.716Z,16.62
2022-07-29T02:33:22.705Z,16.58
2022-07-29T02:34:22.690Z,16.55
2022-07-29T02:35:22.677Z,16.57
2022-07-29T02:36:22.678Z,16.62
2022-07-29T02:37:22.651Z,16.47
2022-07-29T02:38:22.645Z,16.46
2022-07-29T02:39:22.623Z,16.46
2022-07-29T02:40:22.619Z,16.47
2022-07-29T02:41:22.597Z,16.47
2022-07-29T02:42:22.584Z,16.43
2022-07-29T02:43:22.574Z,16.47
2022-07-29T02:44:22.555Z,16.47
2022-07-29T02:45:22.545Z,16.47
2022-07-29T02:46:28.377Z,16.41
2022-07-29T02:47:22.521Z,16.51
2022-07-29T02:48:22.502Z,16.37
2022-07-29T02:49:22.543Z,16.46
2022-07-29T02:50:22.481Z,16.44
2022-07-29T02:51:43.508Z,16.44
2022-07-29T02:52:22.455Z,16.47
2022-07-29T02:53:22.435Z,16.28
2022-07-29T02:54:22.429Z,16.34
2022-07-29T02:55:22.406Z,16.31
2022-07-29T02:56:22.399Z,16.29
2022-07-29T02:57:22.377Z,16.36
2022-07-29T02:58:22.366Z,16.37
2022-07-29T02:59:22.353Z,16.26
2022-07-29T03:00:22.340Z,16.31
2022-07-29T03:01:22.391Z,16.31
2022-07-29T03:02:22.312Z,16.26
2022-07-29T03:03:22.306Z,16.25
2022-07-29T03:04:22.310Z,16.22
2022-07-29T03:05:22.268Z,16.24
2022-07-29T03:06:28.879Z,16.21
2022-07-29T03:07:22.243Z,16.17
2022-07-29T03:08:22.234Z,16.21
2022-07-29T03:09:22.217Z,16.22
2022-07-29T03:10:22.204Z,16.17
2022-07-29T03:11:22.186Z,16.12
2022-07-29T03:12:22.177Z,16.06
2022-07-29T03:13:22.160Z,16.09
2022-07-29T03:14:22.151Z,16.02
2022-07-29T03:15:22.134Z,16.00
2022-07-29T03:16:22.222Z,16.02
2022-07-29T03:17:22.110Z,16.00
2022-07-29T03:18:22.093Z,15.96
2022-07-29T03:19:22.081Z,15.99
2022-07-29T03:20:22.071Z,16.00
2022-07-29T03:21:22.051Z,15.84
2022-07-29T03:22:22.039Z,15.94
2022-07-29T03:23:22.026Z,15.84
2022-07-29T03:24:22.016Z,15.87
2022-07-29T03:25:22.016Z,15.84
2022-07-29T03:26:21.987Z,15.73
2022-07-29T03:27:21.972Z,15.78
2022-07-29T03:28:22.134Z,15.78
2022-07-29T03:29:21.945Z,15.76
2022-07-29T03:30:22.611Z,15.67
2022-07-29T03:31:21.955Z,15.69
2022-07-29T03:32:24.063Z,15.55
2022-07-29T03:33:21.896Z,15.54
2022-07-29T03:34:21.878Z,15.62
2022-07-29T03:35:21.862Z,15.60
2022-07-29T03:36:21.852Z,15.55
2022-07-29T03:37:21.838Z,15.55
2022-07-29T03:38:21.824Z,15.50
2022-07-29T03:39:21.811Z,15.44
2022-07-29T03:40:21.793Z,15.47
2022-07-29T03:41:22.562Z,15.43
2022-07-29T03:42:21.764Z,15.37
2022-07-29T03:43:21.761Z,15.30
2022-07-29T03:44:21.741Z,15.33
2022-07-29T03:45:21.721Z,15.29
2022-07-29T03:46:21.768Z,15.36
2022-07-29T03:47:21.708Z,15.19
2022-07-29T03:48:21.685Z,15.25
2022-07-29T03:49:21.759Z,15.15
2022-07-29T03:50:21.655Z,15.18
2022-07-29T03:51:33.344Z,15.04
2022-07-29T03:52:21.635Z,15.12
2022-07-29T03:53:21.615Z,15.04
2022-07-29T03:54:22.011Z,15.08
2022-07-29T03:55:21.584Z,15.02
2022-07-29T03:56:21.588Z,15.00
2022-07-29T03:57:21.556Z,14.93
2022-07-29T03:58:21.545Z,15.02
2022-07-29T03:59:21.535Z,14.92
2022-07-29T04:00:21.514Z,14.87
2022-07-29T04:01:21.593Z,14.79
2022-07-29T04:02:23.581Z,14.85
2022-07-29T04:03:21.483Z,14.77
2022-07-29T04:04:21.467Z,14.86
2022-07-29T04:05:21.450Z,14.78
2022-07-29T04:06:21.427Z,14.85
2022-07-29T04:07:21.414Z,14.85
2022-07-29T04:08:21.409Z,14.87
2022-07-29T04:09:21.386Z,14.82
2022-07-29T04:10:30.048Z,14.86
2022-07-29T04:11:21.362Z,14.86
2022-07-29T04:12:21.345Z,14.87
2022-07-29T04:13:21.329Z,14.81
2022-07-29T04:14:21.317Z,14.82
2022-07-29T04:15:21.303Z,14.79
2022-07-29T04:16:21.369Z,14.87
2022-07-29T04:17:21.277Z,14.89
2022-07-29T04:18:21.259Z,14.90
2022-07-29T04:19:21.267Z,14.86
2022-07-29T04:20:21.231Z,14.77
2022-07-29T04:21:21.218Z,14.85
2022-07-29T04:22:21.202Z,14.77
2022-07-29T04:23:21.189Z,14.89
2022-07-29T04:24:21.285Z,14.79
2022-07-29T04:25:21.162Z,14.92
2022-07-29T04:26:21.145Z,14.93
2022-07-29T04:27:21.144Z,14.93
2022-07-29T04:28:21.119Z,14.94
2022-07-29T04:29:21.101Z,14.99
2022-07-29T04:30:21.091Z,14.94
2022-07-29T04:31:25.583Z,14.93
2022-07-29T04:32:21.061Z,14.99
2022-07-29T04:33:21.069Z,14.99
2022-07-29T04:34:21.238Z,14.94
2022-07-29T04:35:21.022Z,15.00
2022-07-29T04:36:29.491Z,15.00
2022-07-29T04:37:20.989Z,14.96
2022-07-29T04:38:20.977Z,15.02
2022-07-29T04:39:23.199Z,15.00
2022-07-29T04:40:20.947Z,15.00
2022-07-29T04:41:20.934Z,15.04
2022-07-29T04:42:26.682Z,15.04
2022-07-29T04:43:23.147Z,15.07
2022-07-29T04:44:20.892Z,15.08
2022-07-29T04:45:22.485Z,15.11
2022-07-29T04:46:20.889Z,15.22
2022-07-29T04:47:20.848Z,15.18
2022-07-29T04:48:25.355Z,15.29
2022-07-29T04:49:20.860Z,15.26
2022-07-29T04:50:20.805Z,15.32
2022-07-29T04:51:20.792Z,15.37
2022-07-29T04:52:20.778Z,15.39
2022-07-29T04:53:20.765Z,15.37
2022-07-29T04:54:20.749Z,15.50
2022-07-29T04:55:20.735Z,15.54
2022-07-29T04:56:20.724Z,15.63
2022-07-29T04:57:22.082Z,15.73
2022-07-29T04:58:20.694Z,15.75
2022-07-29T04:59:20.682Z,15.81
2022-07-29T05:00:20.666Z,15.88
2022-07-29T05:01:20.807Z,15.91
2022-07-29T05:02:20.670Z,15.90
2022-07-29T05:03:20.622Z,16.02
2022-07-29T05:04:21.078Z,16.00
2022-07-29T05:05:20.597Z,16.10
2022-07-29T05:06:20.582Z,16.25
2022-07-29T05:07:20.567Z,16.21
2022-07-29T05:08:20.555Z,16.25
2022-07-29T05:09:20.537Z,16.39
2022-07-29T05:10:20.528Z,16.40
2022-07-29T05:11:22.455Z,16.44
2022-07-29T05:12:20.498Z,16.40
2022-07-29T05:13:20.491Z,16.43
2022-07-29T05:14:20.747Z,16.49
2022-07-29T05:15:20.487Z,16.55
2022-07-29T05:16:20.541Z,16.62
2022-07-29T05:17:20.428Z,16.59
2022-07-29T05:18:20.422Z,16.64
2022-07-29T05:19:20.400Z,16.65
2022-07-29T05:20:20.389Z,16.62
2022-07-29T05:21:20.373Z,16.65
2022-07-29T05:22:20.547Z,16.61
2022-07-29T05:23:20.349Z,16.64
2022-07-29T05:24:20.550Z,16.68
2022-07-29T05:25:20.330Z,16.58
2022-07-29T05:26:20.313Z,16.64
2022-07-29T05:27:20.298Z,16.69
2022-07-29T05:28:20.282Z,16.69
2022-07-29T05:29:42.851Z,16.73
2022-07-29T05:30:20.480Z,16.69
2022-07-29T05:31:20.364Z,16.76
2022-07-29T05:32:20.226Z,16.74
2022-07-29T05:33:36.228Z,16.86
2022-07-29T05:34:20.195Z,16.79
2022-07-29T05:35:20.187Z,16.92
2022-07-29T05:36:20.172Z,16.98
2022-07-29T05:37:20.155Z,17.05
2022-07-29T05:38:20.141Z,17.07
2022-07-29T05:39:20.134Z,17.10
2022-07-29T05:40:20.124Z,17.19
2022-07-29T05:41:20.125Z,17.27
2022-07-29T05:42:20.085Z,17.28
2022-07-29T05:43:20.072Z,17.35
2022-07-29T05:44:20.070Z,17.49
2022-07-29T05:45:20.044Z,17.56
2022-07-29T05:46:20.098Z,17.57
2022-07-29T05:47:20.018Z,17.71
2022-07-29T05:48:20.009Z,17.78
2022-07-29T05:49:26.918Z,17.90
2022-07-29T05:50:19.978Z,17.94
2022-07-29T05:51:19.975Z,17.93
2022-07-29T05:52:19.955Z,18.09
2022-07-29T05:53:20.858Z,18.26
2022-07-29T05:54:19.941Z,18.31
2022-07-29T05:55:19.913Z,18.42
2022-07-29T05:56:19.911Z,18.48
2022-07-29T05:57:19.894Z,18.60
2022-07-29T05:58:19.880Z,18.73
2022-07-29T05:59:19.866Z,18.70
2022-07-29T06:00:19.857Z,18.89
2022-07-29T06:01:19.870Z,18.83
2022-07-29T06:02:19.860Z,18.96
2022-07-29T06:03:19.833Z,18.94
2022-07-29T06:04:20.498Z,19.12
2022-07-29T06:05:19.788Z,19.12
2022-07-29T06:06:19.772Z,19.20
2022-07-29T06:07:19.757Z,19.20
2022-07-29T06:08:19.747Z,19.20
2022-07-29T06:09:19.734Z,19.26
2022-07-29T06:10:19.724Z,19.29
2022-07-29T06:11:19.708Z,19.30
2022-07-29T06:12:19.697Z,19.24
2022-07-29T06:13:19.680Z,19.29
2022-07-29T06:14:19.821Z,19.35
2022-07-29T06:15:19.688Z,19.34
2022-07-29T06:16:30.297Z,19.37
2022-07-29T06:17:19.635Z,19.39
2022-07-29T06:18:19.621Z,19.45
2022-07-29T06:19:19.607Z,19.44
2022-07-29T06:20:19.596Z,19.42
2022-07-29T06:21:19.581Z,19.49
2022-07-29T06:22:19.571Z,19.49
2022-07-29T06:23:19.556Z,19.47
2022-07-29T06:24:20.102Z,19.52
2022-07-29T06:25:19.533Z,19.45
2022-07-29T06:26:19.529Z,19.52
2022-07-29T06:27:19.539Z,19.47
2022-07-29T06:28:19.511Z,19.53
2022-07-29T06:29:19.483Z,19.57
2022-07-29T06:30:19.472Z,19.59
2022-07-29T06:31:19.484Z,19.60
2022-07-29T06:32:19.447Z,19.48
2022-07-29T06:33:19.437Z,19.59
2022-07-29T06:34:19.800Z,19.60
2022-07-29T06:35:38.454Z,19.60
2022-07-29T06:36:19.396Z,19.63
2022-07-29T06:37:19.385Z,19.70
2022-07-29T06:38:30.897Z,19.63
2022-07-29T06:39:19.358Z,19.64
2022-07-29T06:40:19.348Z,19.63
2022-07-29T06:41:19.336Z,19.74
2022-07-29T06:42:19.325Z,19.87
2022-07-29T06:43:19.312Z,19.93
2022-07-29T06:44:19.697Z,20.02
2022-07-29T06:45:19.285Z,20.11
2022-07-29T06:46:19.371Z,20.19
2022-07-29T06:47:19.263Z,20.30
2022-07-29T06:48:19.263Z,20.53
2022-07-29T06:49:19.348Z,20.50
2022-07-29T06:50:19.248Z,20.74
2022-07-29T06:51:21.737Z,20.83
2022-07-29T06:52:19.208Z,21.04
2022-07-29T06:53:19.214Z,21.20
2022-07-29T06:54:19.382Z,21.43
2022-07-29T06:55:24.997Z,21.59
2022-07-29T06:56:19.156Z,21.70
2022-07-29T06:57:19.146Z,21.85
2022-07-29T06:58:19.132Z,22.06
2022-07-29T06:59:20.586Z,22.26
2022-07-29T07:00:19.120Z,22.36
2022-07-29T07:01:19.126Z,22.56
2022-07-29T07:02:19.119Z,22.65
2022-07-29T07:03:19.079Z,22.83
2022-07-29T07:04:19.392Z,22.78
2022-07-29T07:05:19.054Z,22.93
2022-07-29T07:06:19.046Z,22.98
2022-07-29T07:07:19.036Z,23.02
2022-07-29T07:08:19.022Z,23.08
2022-07-29T07:09:19.010Z,23.10
2022-07-29T07:10:18.998Z,23.14
2022-07-29T07:11:18.990Z,23.17
2022-07-29T07:12:18.982Z,23.14
2022-07-29T07:13:18.970Z,23.14
2022-07-29T07:14:19.318Z,23.14
2022-07-29T07:15:18.948Z,23.11
2022-07-29T07:16:18.979Z,23.02
2022-07-29T07:17:18.925Z,23.02
2022-07-29T07:18:18.915Z,23.01
2022-07-29T07:19:18.908Z,23.08
2022-07-29T07:20:18.904Z,23.17
2022-07-29T07:21:19.672Z,23.18
2022-07-29T07:22:18.874Z,23.21
2022-07-29T07:23:18.870Z,23.33
2022-07-29T07:24:19.102Z,23.44
2022-07-29T07:25:18.849Z,23.51
2022-07-29T07:26:18.840Z,23.62
2022-07-29T07:27:18.829Z,23.70
2022-07-29T07:28:18.812Z,23.76
2022-07-29T07:29:18.801Z,23.91
2022-07-29T07:30:18.790Z,23.96
2022-07-29T07:31:18.920Z,24.01
2022-07-29T07:32:18.817Z,24.09
2022-07-29T07:33:18.767Z,24.07
2022-07-29T07:34:19.176Z,24.16
2022-07-29T07:35:18.743Z,24.14
2022-07-29T07:36:18.739Z,24.38
2022-07-29T07:37:18.722Z,24.46
2022-07-29T07:38:18.712Z,24.66
2022-07-29T07:39:18.712Z,24.84
2022-07-29T07:40:18.974Z,24.94
2022-07-29T07:41:18.695Z,24.96
2022-07-29T07:42:18.686Z,25.15
2022-07-29T07:43:18.671Z,25.26
2022-07-29T07:44:18.996Z,25.40
2022-07-29T07:45:18.674Z,25.55
2022-07-29T07:46:18.771Z,25.62
2022-07-29T07:47:18.632Z,25.74
2022-07-29T07:48:18.626Z,25.88
2022-07-29T07:49:18.648Z,25.99
2022-07-29T07:50:19.343Z,26.19
2022-07-29T07:51:18.604Z,26.27
2022-07-29T07:52:18.589Z,26.27
2022-07-29T07:53:18.584Z,26.31
2022-07-29T07:54:20.460Z,26.29
2022-07-29T07:55:18.567Z,26.30
2022-07-29T07:56:18.702Z,26.30
2022-07-29T07:57:18.549Z,26.36
2022-07-29T07:58:18.553Z,26.36
2022-07-29T07:59:18.535Z,26.44
2022-07-29T08:00:18.530Z,26.49
2022-07-29T08:01:18.570Z,26.56
2022-07-29T08:02:18.654Z,26.52
2022-07-29T08:03:18.514Z,26.59
2022-07-29T08:04:23.487Z,26.66
2022-07-29T08:05:18.485Z,26.78
2022-07-29T08:06:18.480Z,26.93
2022-07-29T08:07:18.471Z,27.05
2022-07-29T08:08:18.463Z,27.16
2022-07-29T08:09:28.884Z,27.16
2022-07-29T08:10:18.451Z,27.11
2022-07-29T08:11:18.448Z,27.28
2022-07-29T08:12:18.437Z,27.16
2022-07-29T08:13:18.429Z,27.07
2022-07-29T08:14:18.764Z,26.82
2022-07-29T08:15:18.419Z,26.83
2022-07-29T08:16:18.501Z,26.78
2022-07-29T08:17:18.400Z,26.85
2022-07-29T08:18:18.393Z,26.81
2022-07-29T08:19:18.387Z,26.71
2022-07-29T08:20:18.375Z,26.60
2022-07-29T08:21:18.373Z,26.44
2022-07-29T08:22:18.362Z,26.33
2022-07-29T08:23:18.355Z,26.27
2022-07-29T08:24:18.370Z,26.18
2022-07-29T08:25:18.343Z,26.01
2022-07-29T08:26:18.337Z,25.98
2022-07-29T08:27:41.948Z,25.88
2022-07-29T08:28:18.339Z,25.86
2022-07-29T08:29:20.030Z,25.71
2022-07-29T08:30:18.302Z,25.67
2022-07-29T08:31:18.318Z,25.58
2022-07-29T08:32:36.955Z,25.44
2022-07-29T08:33:18.283Z,25.51
2022-07-29T08:34:18.274Z,25.56
2022-07-29T08:35:18.265Z,25.73
2022-07-29T08:36:18.256Z,25.78
2022-07-29T08:37:18.250Z,26.10
2022-07-29T08:38:18.246Z,26.24
2022-07-29T08:39:18.233Z,26.61
2022-07-29T08:40:18.231Z,26.92
2022-07-29T08:41:18.223Z,27.16
2022-07-29T08:42:18.223Z,27.40
2022-07-29T08:43:18.273Z,27.68
2022-07-29T08:44:18.222Z,28.01
2022-07-29T08:45:18.190Z,28.13
2022-07-29T08:46:18.415Z,28.18
2022-07-29T08:47:18.178Z,28.15
2022-07-29T08:48:18.175Z,28.10
2022-07-29T08:49:18.226Z,28.04
2022-07-29T08:50:18.183Z,28.04
2022-07-29T08:51:18.151Z,28.06
2022-07-29T08:52:18.146Z,28.40
2022-07-29T08:53:18.139Z,28.53
2022-07-29T08:54:18.144Z,28.84
2022-07-29T08:55:21.409Z,29.13
2022-07-29T08:56:18.117Z,29.40
2022-07-29T08:57:18.111Z,29.65
2022-07-29T08:58:18.125Z,29.89
2022-07-29T08:59:18.132Z,30.03
2022-07-29T09:00:18.099Z,30.06
2022-07-29T09:01:18.122Z,30.11
2022-07-29T09:02:18.086Z,30.13
2022-07-29T09:03:18.121Z,30.31
2022-07-29T09:04:18.073Z,30.51
2022-07-29T09:05:18.068Z,30.69
2022-07-29T09:06:18.066Z,30.77
2022-07-29T09:07:18.063Z,30.78
2022-07-29T09:08:18.056Z,30.76
2022-07-29T09:09:18.101Z,30.65
2022-07-29T09:10:18.042Z,30.51
2022-07-29T09:11:18.083Z,30.46
2022-07-29T09:12:29.563Z,30.36
2022-07-29T09:13:18.102Z,30.46
2022-07-29T09:14:18.028Z,30.51
2022-07-29T09:15:18.022Z,30.59
2022-07-29T09:16:37.198Z,30.61
2022-07-29T09:17:18.030Z,30.71
2022-07-29T09:18:20.382Z,30.88
2022-07-29T09:19:18.004Z,31.05
2022-07-29T09:20:18.103Z,31.02
2022-07-29T09:21:17.995Z,31.11
2022-07-29T09:22:17.992Z,31.18
2022-07-29T09:23:23.152Z,31.15
2022-07-29T09:24:17.985Z,31.20
2022-07-29T09:25:17.980Z,31.30
2022-07-29T09:26:17.971Z,31.54
2022-07-29T09:27:18.005Z,31.66
2022-07-29T09:28:17.975Z,31.72
2022-07-29T09:29:17.960Z,31.74
2022-07-29T09:30:25.549Z,31.72
2022-07-29T09:31:18.009Z,31.52
2022-07-29T09:32:17.949Z,31.50
2022-07-29T09:33:17.950Z,31.48
2022-07-29T09:34:17.953Z,31.13
2022-07-29T09:35:17.938Z,30.93
2022-07-29T09:36:17.950Z,30.77
2022-07-29T09:37:17.932Z,30.73
2022-07-29T09:38:17.925Z,30.58
2022-07-29T09:39:17.997Z,30.58
2022-07-29T09:40:18.112Z,30.55
2022-07-29T09:41:17.915Z,30.51
2022-07-29T09:42:17.907Z,30.61
2022-07-29T09:43:17.911Z,30.56
2022-07-29T09:44:17.936Z,30.56
2022-07-29T09:45:17.898Z,30.62
2022-07-29T09:46:17.948Z,30.59
2022-07-29T09:47:17.985Z,30.78
2022-07-29T09:48:17.885Z,30.89
2022-07-29T09:49:17.945Z,30.95
2022-07-29T09:50:17.877Z,30.98
2022-07-29T09:51:20.662Z,31.00
2022-07-29T09:52:17.866Z,30.99
2022-07-29T09:53:17.864Z,31.10
2022-07-29T09:54:17.860Z,31.35
2022-07-29T09:55:18.370Z,31.67
2022-07-29T09:56:17.850Z,31.93
2022-07-29T09:57:17.850Z,32.05
2022-07-29T09:58:17.851Z,32.27
2022-07-29T09:59:17.851Z,32.42
2022-07-29T10:00:17.836Z,32.79
2022-07-29T10:01:17.907Z,32.94
2022-07-29T10:02:22.152Z,33.20
2022-07-29T10:03:17.859Z,33.29
2022-07-29T10:04:17.824Z,33.38
2022-07-29T10:05:17.821Z,33.44
2022-07-29T10:06:17.818Z,33.50
2022-07-29T10:07:17.817Z,33.58
2022-07-29T10:08:17.813Z,33.60
2022-07-29T10:09:17.811Z,33.91
2022-07-29T10:10:17.805Z,34.18
2022-07-29T10:11:17.805Z,34.69
2022-07-29T10:12:17.805Z,34.96
2022-07-29T10:13:17.800Z,35.32
2022-07-29T10:14:17.857Z,35.66
2022-07-29T10:15:17.799Z,35.93
2022-07-29T10:16:17.854Z,36.26
2022-07-29T10:17:17.798Z,36.62
2022-07-29T10:18:17.793Z,36.82
2022-07-29T10:19:17.793Z,37.01
2022-07-29T10:20:17.879Z,36.91
2022-07-29T10:21:22.673Z,37.01
2022-07-29T10:22:43.326Z,37.03
2022-07-29T10:23:17.790Z,37.11
2022-07-29T10:24:17.789Z,37.21
2022-07-29T10:25:17.790Z,37.61
2022-07-29T10:26:17.787Z,37.58
2022-07-29T10:27:17.791Z,37.61
2022-07-29T10:28:17.790Z,37.44
2022-07-29T10:29:17.784Z,37.15
2022-07-29T10:30:17.784Z,36.92
2022-07-29T10:31:17.835Z,36.75
2022-07-29T10:32:17.791Z,36.59
2022-07-29T10:33:17.909Z,36.55
2022-07-29T10:34:17.917Z,36.45
2022-07-29T10:35:17.790Z,36.47
2022-07-29T10:36:18.535Z,36.28
2022-07-29T10:37:17.790Z,36.14
2022-07-29T10:38:17.782Z,36.17
2022-07-29T10:39:17.810Z,36.08
2022-07-29T10:40:17.783Z,36.08
2022-07-29T10:41:19.434Z,36.13
2022-07-29T10:42:17.786Z,36.33
2022-07-29T10:43:17.784Z,36.31
2022-07-29T10:44:19.122Z,36.28
2022-07-29T10:45:17.786Z,36.16
2022-07-29T10:46:17.925Z,36.13
2022-07-29T10:47:17.779Z,36.00
2022-07-29T10:48:17.779Z,35.93
2022-07-29T10:49:18.184Z,35.79
2022-07-29T10:50:17.848Z,35.94
2022-07-29T10:51:17.859Z,35.98
2022-07-29T10:52:17.778Z,36.09
2022-07-29T10:53:17.777Z,36.00
2022-07-29T10:54:17.776Z,35.86
2022-07-29T10:55:17.775Z,35.76
2022-07-29T10:56:17.772Z,35.53
2022-07-29T10:57:17.777Z,35.32
2022-07-29T10:58:18.870Z,35.32
2022-07-29T10:59:17.772Z,35.41
2022-07-29T11:00:17.770Z,35.54
2022-07-29T11:01:17.770Z,35.69
2022-07-29T11:02:41.416Z,35.81
2022-07-29T11:03:17.812Z,35.82
2022-07-29T11:04:17.763Z,35.88
2022-07-29T11:06:18.049Z,35.82
2022-07-29T11:07:18.354Z,35.78
2022-07-29T11:08:20.116Z,35.88
2022-07-29T11:09:18.279Z,35.97
2022-07-29T11:10:18.176Z,36.08
2022-07-29T11:11:17.761Z,36.14
2022-07-29T11:12:17.926Z,36.18
2022-07-29T11:13:17.857Z,36.31
2022-07-29T11:14:17.797Z,36.25
2022-07-29T11:15:18.087Z,36.18
2022-07-29T11:16:17.820Z,36.20
2022-07-29T11:17:17.853Z,36.03
2022-07-29T11:18:17.915Z,35.84
2022-07-29T11:19:26.401Z,35.56
2022-07-29T11:20:17.768Z,35.54
2022-07-29T11:21:17.799Z,35.60
2022-07-29T11:22:17.828Z,35.61
2022-07-29T11:23:17.849Z,35.52
2022-07-29T11:24:18.658Z,35.49
2022-07-29T11:25:17.754Z,35.39
2022-07-29T11:26:18.688Z,35.45
2022-07-29T11:27:18.205Z,35.63
2022-07-29T11:28:23.198Z,35.74
2022-07-29T11:29:17.835Z,35.94
2022-07-29T11:30:17.809Z,36.09
2022-07-29T11:31:17.927Z,36.25
2022-07-29T11:32:18.348Z,36.26
2022-07-29T11:33:17.780Z,36.47
2022-07-29T11:34:17.791Z,36.69
2022-07-29T11:35:18.853Z,36.75
2022-07-29T11:36:17.904Z,36.57
2022-07-29T11:37:18.012Z,36.53
2022-07-29T11:38:17.791Z,36.28
2022-07-29T11:39:17.747Z,36.06
2022-07-29T11:40:18.306Z,35.78
2022-07-29T11:41:17.797Z,35.59
2022-07-29T11:42:18.087Z,35.34
2022-07-29T11:43:18.196Z,35.08
2022-07-29T11:44:18.194Z,34.73
2022-07-29T11:45:43.613Z,34.85
2022-07-29T11:46:18.088Z,34.98
2022-07-29T11:47:18.105Z,35.27
2022-07-29T11:48:29.267Z,35.66
2022-07-29T11:49:18.386Z,36.14
2022-07-29T11:50:17.813Z,36.55
2022-07-29T11:51:17.715Z,36.87
2022-07-29T11:52:17.830Z,37.00
2022-07-29T11:53:17.800Z,37.25
2022-07-29T11:54:17.794Z,37.36
2022-07-29T11:55:17.769Z,37.53
2022-07-29T11:56:17.717Z,37.68
2022-07-29T11:57:17.763Z,37.78
2022-07-29T11:58:17.785Z,37.92
2022-07-29T11:59:17.949Z,38.22
2022-07-29T12:00:18.733Z,38.44
2022-07-29T12:01:17.797Z,38.50
2022-07-29T12:02:37.461Z,38.84
2022-07-29T12:03:18.549Z,39.10
2022-07-29T12:04:17.934Z,39.19
2022-07-29T12:06:18.616Z,39.30
2022-07-29T12:07:17.762Z,39.29
2022-07-29T12:08:17.717Z,39.11
2022-07-29T12:09:18.087Z,38.95
2022-07-29T12:10:19.460Z,38.85
2022-07-29T12:11:17.882Z,38.85
2022-07-29T12:12:17.800Z,38.84
2022-07-29T12:13:17.904Z,38.76
2022-07-29T12:14:17.875Z,38.75
2022-07-29T12:15:18.060Z,38.81
2022-07-29T12:16:28.146Z,39.05
2022-07-29T12:17:17.711Z,39.25
2022-07-29T12:18:18.453Z,39.39
2022-07-29T12:19:18.410Z,39.51
2022-07-29T12:20:18.036Z,39.68
2022-07-29T12:21:18.415Z,39.78
2022-07-29T12:22:18.680Z,39.91
2022-07-29T12:23:18.838Z,40.08
2022-07-29T12:24:17.721Z,40.31
2022-07-29T12:25:32.360Z,40.35
2022-07-29T12:26:25.326Z,40.20
2022-07-29T12:27:17.721Z,40.19
2022-07-29T12:28:18.585Z,39.91
2022-07-29T12:29:20.394Z,39.98
2022-07-29T12:30:17.722Z,39.98
2022-07-29T12:31:43.021Z,39.94
2022-07-29T12:32:19.450Z,39.73
2022-07-29T12:33:17.725Z,39.61
2022-07-29T12:34:17.747Z,39.70
2022-07-29T12:35:18.327Z,39.71
2022-07-29T12:36:18.073Z,40.02
2022-07-29T12:37:17.738Z,40.39
2022-07-29T12:38:17.722Z,40.64
2022-07-29T12:39:17.728Z,40.88
2022-07-29T12:40:17.779Z,41.10
2022-07-29T12:41:17.738Z,41.12
2022-07-29T12:42:18.560Z,41.23
2022-07-29T12:43:17.739Z,40.99
2022-07-29T12:44:17.747Z,40.98
2022-07-29T12:45:17.733Z,41.23
2022-07-29T12:46:17.779Z,41.32
2022-07-29T12:47:17.785Z,41.32
2022-07-29T12:48:17.748Z,41.00
2022-07-29T12:49:17.920Z,40.39
2022-07-29T12:50:17.935Z,39.80
2022-07-29T12:51:17.740Z,39.07
2022-07-29T12:52:17.738Z,38.44
2022-07-29T12:53:17.939Z,37.72
2022-07-29T12:54:17.746Z,37.19